Time;durP1;ratioP1;P1;durP2;ratioP2;P2;SDS_P1;SDS_P2;PMS_P1;PMS_P2;Temp;Humidity;BMP_temperature;BMP_pressure;BME280_temperature;BME280_humidity;BME280_pressure;Samples;Min_cycle;Max_cycle;Signal;HPM_P1;HPM_P2
2021/09/03 00:01:45;;;;;;;15.57;10.30;;;;;;;19.77;62.10;101432.38;5036414;28;20049;-61
2021/09/03 00:04:12;;;;;;;15.02;9.32;;;;;;;19.47;63.67;101445.13;5036469;28;20064;-60
2021/09/03 00:06:40;;;;;;;15.15;9.52;;;;;;;19.63;62.69;101432.00;5035387;28;20057;-60
2021/09/03 00:09:07;;;;;;;13.07;9.65;;;;;;;19.49;63.49;101436.41;5036173;28;20049;-60
2021/09/03 00:11:34;;;;;;;11.77;9.48;;;;;;;19.70;62.85;101434.19;5036195;28;20460;-60
2021/09/03 00:14:01;;;;;;;18.23;10.38;;;;;;;19.56;62.81;101431.78;5049836;28;20049;-59
2021/09/03 00:16:29;;;;;;;14.70;10.43;;;;;;;19.30;64.31;101430.63;5056313;28;20056;-60
2021/09/03 00:18:56;;;;;;;17.25;9.45;;;;;;;19.10;64.63;101435.22;5056181;28;20064;-61
2021/09/03 00:21:23;;;;;;;16.00;10.35;;;;;;;19.16;64.82;101433.78;5055970;28;20044;-60
2021/09/03 00:23:50;;;;;;;16.45;10.20;;;;;;;19.30;64.27;101425.84;5056204;28;20404;-60
2021/09/03 00:26:17;;;;;;;14.23;10.18;;;;;;;19.20;64.58;101431.09;5055769;28;20053;-59
2021/09/03 00:28:45;;;;;;;15.18;9.95;;;;;;;19.24;64.17;101427.25;5054417;28;20060;-59
2021/09/03 00:31:12;;;;;;;18.25;9.98;;;;;;;19.41;64.13;101426.16;5054742;28;20052;-60
2021/09/03 00:33:39;;;;;;;16.27;9.93;;;;;;;19.31;64.64;101433.09;5056016;28;20103;-60
2021/09/03 00:36:07;;;;;;;16.75;10.77;;;;;;;19.60;63.72;101431.91;5055673;28;20049;-61
2021/09/03 00:38:35;;;;;;;14.82;9.50;;;;;;;19.93;62.61;101424.84;5055325;28;20695;-60
2021/09/03 00:41:03;;;;;;;13.93;10.00;;;;;;;19.95;62.08;101427.28;5055322;28;20049;-60
2021/09/03 00:43:30;;;;;;;15.10;10.85;;;;;;;19.52;63.47;101414.13;5055548;28;20056;-60
2021/09/03 00:45:57;;;;;;;17.17;11.27;;;;;;;18.91;65.35;101413.50;5054343;28;20056;-60
2021/09/03 00:48:25;;;;;;;14.93;10.35;;;;;;;19.22;64.94;101409.22;5055436;28;20061;-61
2021/09/03 00:50:53;;;;;;;16.23;9.68;;;;;;;19.45;64.00;101411.13;5055310;28;20059;-60
2021/09/03 00:53:20;;;;;;;13.75;9.95;;;;;;;19.61;63.40;101409.19;5054094;28;20443;-61
2021/09/03 00:55:48;;;;;;;17.95;10.63;;;;;;;19.48;63.80;101401.22;5055415;28;20048;-60
2021/09/03 00:58:15;;;;;;;18.77;10.20;;;;;;;19.40;63.70;101396.59;5054014;28;20408;-59
2021/09/03 01:00:43;;;;;;;18.63;10.80;;;;;;;18.99;65.38;101397.75;5053969;28;20404;-61
2021/09/03 01:03:10;;;;;;;14.80;10.52;;;;;;;18.68;66.79;101400.41;5055328;28;20547;-62
2021/09/03 01:05:38;;;;;;;17.65;11.57;;;;;;;18.81;66.25;101394.44;5053987;28;20067;-61
2021/09/03 01:08:05;;;;;;;15.52;11.02;;;;;;;18.52;67.64;101391.13;5052761;28;20067;-61
2021/09/03 01:10:33;;;;;;;15.57;10.88;;;;;;;18.72;66.87;101391.00;5054898;28;20041;-62
2021/09/03 01:13:01;;;;;;;19.98;10.75;;;;;;;19.01;66.35;101387.88;5048146;28;20053;-61
2021/09/03 01:15:29;;;;;;;16.70;11.35;;;;;;;18.93;66.02;101385.25;5035194;28;20057;-62
2021/09/03 01:17:56;;;;;;;16.40;11.23;;;;;;;18.82;66.92;101386.88;5035091;28;20050;-62
2021/09/03 01:20:23;;;;;;;18.23;11.52;;;;;;;18.92;66.48;101389.19;5032998;28;20064;-60
2021/09/03 01:22:50;;;;;;;20.15;11.40;;;;;;;18.99;66.23;101384.63;5035048;28;20049;-62
2021/09/03 01:25:19;;;;;;;19.08;11.85;;;;;;;18.63;67.31;101384.72;5034970;28;20482;-61
2021/09/03 01:27:46;;;;;;;20.38;11.20;;;;;;;18.84;67.06;101374.22;5035136;28;20053;-61
2021/09/03 01:30:15;;;;;;;17.23;11.80;;;;;;;19.06;65.97;101375.63;5034487;28;20053;-62
2021/09/03 01:32:43;;;;;;;16.42;11.40;;;;;;;19.33;64.75;101374.06;5034781;28;20544;-62
2021/09/03 01:35:10;;;;;;;15.90;11.32;;;;;;;19.02;66.18;101381.13;5034822;28;20413;-62
2021/09/03 01:37:38;;;;;;;14.25;11.32;;;;;;;19.03;66.22;101367.97;5032999;28;20053;-64
2021/09/03 01:40:05;;;;;;;16.92;12.30;;;;;;;18.38;68.69;101369.13;5034371;28;20049;-62
2021/09/03 01:42:33;;;;;;;18.50;12.50;;;;;;;18.57;68.12;101371.34;5032523;28;20064;-59
2021/09/03 01:45:00;;;;;;;19.13;11.88;;;;;;;18.61;68.15;101375.06;5034704;28;20117;-59
2021/09/03 01:47:28;;;;;;;19.92;12.68;;;;;;;18.42;68.86;101374.84;5034430;28;20055;-60
2021/09/03 01:49:56;;;;;;;15.88;12.18;;;;;;;18.55;68.64;101368.13;5034507;28;20056;-61
2021/09/03 01:52:23;;;;;;;19.70;11.98;;;;;;;18.53;68.14;101371.22;5034486;28;20076;-60
2021/09/03 01:54:50;;;;;;;19.13;12.18;;;;;;;18.42;69.22;101374.84;5034204;28;20039;-63
2021/09/03 01:57:17;;;;;;;21.92;13.25;;;;;;;18.23;69.60;101371.81;5034272;28;20049;-63
2021/09/03 01:59:45;;;;;;;23.23;14.30;;;;;;;18.28;69.88;101377.16;5032906;28;20496;-63
2021/09/03 02:02:12;;;;;;;21.95;12.57;;;;;;;18.59;68.47;101367.03;5034215;28;20052;-60
2021/09/03 02:04:40;;;;;;;16.23;11.43;;;;;;;18.56;68.71;101372.50;5016205;28;20289;-60
2021/09/03 02:07:07;;;;;;;21.83;13.30;;;;;;;18.50;68.92;101371.94;5032904;28;20053;-62
2021/09/03 02:09:34;;;;;;;19.92;12.38;;;;;;;18.40;68.95;101364.06;5033757;28;20057;-62
2021/09/03 02:12:02;;;;;;;18.08;12.48;;;;;;;18.65;68.32;101367.63;5032535;28;20049;-63
2021/09/03 02:14:29;;;;;;;20.13;14.45;;;;;;;18.27;69.59;101358.81;5052579;28;20044;-62
2021/09/03 02:16:56;;;;;;;19.10;13.90;;;;;;;18.02;70.10;101366.34;5054304;28;20056;-62
2021/09/03 02:19:23;;;;;;;22.55;14.13;;;;;;;17.74;72.10;101357.03;5051470;28;20068;-62
2021/09/03 02:21:51;;;;;;;19.83;13.95;;;;;;;17.71;72.02;101366.88;5052257;28;20049;-62
2021/09/03 02:24:18;;;;;;;24.98;15.60;;;;;;;17.47;72.83;101364.03;5052090;28;20053;-63
2021/09/03 02:26:45;;;;;;;25.33;14.60;;;;;;;17.52;72.91;101368.59;5053755;28;20045;-61
2021/09/03 02:29:12;;;;;;;25.00;14.73;;;;;;;17.45;73.37;101369.09;5052526;28;20419;-61
2021/09/03 02:31:40;;;;;;;22.15;14.70;;;;;;;17.81;72.33;101369.25;5053748;28;20044;-62
2021/09/03 02:34:07;;;;;;;20.70;13.85;;;;;;;18.12;71.05;101367.84;5051697;28;20183;-62
2021/09/03 02:36:34;;;;;;;19.83;13.93;;;;;;;18.18;70.51;101370.09;5053913;28;20049;-63
2021/09/03 02:39:01;;;;;;;20.95;14.43;;;;;;;18.16;70.58;101364.03;5053586;28;20055;-60
2021/09/03 02:41:29;;;;;;;21.20;15.45;;;;;;;18.01;71.00;101363.91;5053156;28;20484;-61
2021/09/03 02:43:56;;;;;;;19.70;14.48;;;;;;;18.00;71.23;101363.09;5052444;28;20049;-60
2021/09/03 02:46:23;;;;;;;22.42;14.48;;;;;;;18.18;70.39;101361.72;5052479;28;20056;-60
2021/09/03 02:48:51;;;;;;;25.23;14.45;;;;;;;18.18;70.22;101352.53;5056902;28;20053;-63
2021/09/03 02:51:18;;;;;;;21.83;15.75;;;;;;;18.30;69.74;101367.28;5053238;28;20584;-62
2021/09/03 02:53:45;;;;;;;26.40;16.80;;;;;;;17.94;70.25;101353.31;5052322;28;20365;-62
2021/09/03 02:56:12;;;;;;;24.20;16.35;;;;;;;17.93;70.79;101352.53;5053651;28;20056;-62
2021/09/03 02:58:40;;;;;;;23.15;15.70;;;;;;;17.79;71.43;101351.22;5051743;28;20059;-62
2021/09/03 03:01:07;;;;;;;24.08;16.52;;;;;;;18.10;70.61;101353.47;5051974;28;20048;-60
2021/09/03 03:03:34;;;;;;;25.23;16.83;;;;;;;18.18;70.19;101353.34;5051878;28;20057;-60
2021/09/03 03:06:02;;;;;;;19.45;15.38;;;;;;;18.00;70.08;101351.94;5053302;28;20052;-59
2021/09/03 03:08:29;;;;;;;26.65;16.42;;;;;;;17.73;71.51;101359.00;5053476;28;20045;-59
2021/09/03 03:10:56;;;;;;;27.40;17.50;;;;;;;17.69;72.00;101357.25;5051858;28;20049;-60
2021/09/03 03:13:29;;;;;;;25.00;17.13;;;;;;;17.72;71.79;101350.97;5043483;28;20041;-60
2021/09/03 03:15:56;;;;;;;23.17;16.63;;;;;;;17.76;71.95;101349.13;5033403;28;20129;-58
2021/09/03 03:18:24;;;;;;;26.30;17.60;;;;;;;17.42;72.37;101343.91;5033300;28;20057;-59
2021/09/03 03:20:51;;;;;;;24.05;17.25;;;;;;;17.27;73.14;101344.56;5015469;28;20050;-59
2021/09/03 03:23:19;;;;;;;25.35;17.65;;;;;;;17.49;72.48;101338.63;5033250;28;20056;-62
2021/09/03 03:25:47;;;;;;;20.92;16.42;;;;;;;17.64;72.49;101338.78;5033046;28;20053;-62
2021/09/03 03:28:14;;;;;;;25.52;17.45;;;;;;;17.65;71.89;101326.47;5031918;28;20054;-60
2021/09/03 03:30:42;;;;;;;25.17;17.88;;;;;;;17.68;71.95;101334.13;5033390;28;20046;-60
2021/09/03 03:33:09;;;;;;;24.48;16.45;;;;;;;17.64;71.20;101332.41;5037071;28;20057;-60
2021/09/03 03:35:36;;;;;;;24.60;18.02;;;;;;;17.21;73.43;101332.03;5037057;28;20060;-60
2021/09/03 03:38:04;;;;;;;26.45;18.48;;;;;;;16.93;74.89;101331.78;5035633;28;20056;-62
2021/09/03 03:40:35;;;;;;;27.80;19.10;;;;;;;16.59;76.19;101330.13;5019069;28;20068;-63
2021/09/03 03:43:07;;;;;;;25.63;18.42;;;;;;;17.09;74.81;101334.75;5036705;28;20060;-62
2021/09/03 03:45:35;;;;;;;28.13;18.65;;;;;;;17.31;73.54;101337.97;5037226;28;20049;-62
2021/09/03 03:48:04;;;;;;;31.00;18.73;;;;;;;17.42;72.93;101330.81;5036731;28;20064;-61
2021/09/03 03:50:31;;;;;;;24.42;18.67;;;;;;;17.57;72.24;101332.16;5036414;28;20390;-59
2021/09/03 03:52:58;;;;;;;26.50;19.10;;;;;;;17.55;72.11;101329.72;5036719;28;20256;-60
2021/09/03 03:55:26;;;;;;;29.00;17.73;;;;;;;17.70;71.96;101339.38;5036556;28;20049;-62
2021/09/03 03:57:53;;;;;;;26.92;18.80;;;;;;;17.51;71.97;101337.13;5034908;28;20049;-62
2021/09/03 04:00:20;;;;;;;26.27;19.02;;;;;;;17.58;71.63;101345.75;5018272;28;20057;-62
2021/09/03 04:02:48;;;;;;;28.33;18.95;;;;;;;17.44;71.74;101342.41;5035211;28;20073;-63
2021/09/03 04:05:17;;;;;;;26.42;19.52;;;;;;;17.33;72.62;101332.06;5035153;28;20046;-62
2021/09/03 04:07:44;;;;;;;29.80;19.38;;;;;;;17.32;72.75;101328.47;5037256;28;20088;-61
2021/09/03 04:10:12;;;;;;;25.38;19.13;;;;;;;16.96;73.86;101341.44;5035223;28;20057;-63
2021/09/03 04:12:39;;;;;;;26.42;20.23;;;;;;;16.86;74.40;101345.44;5039861;28;20278;-62
2021/09/03 04:15:07;;;;;;;27.73;19.88;;;;;;;16.85;75.33;101339.06;5056080;28;20049;-60
2021/09/03 04:17:35;;;;;;;27.58;19.58;;;;;;;17.51;73.42;101339.09;5056118;28;20045;-61
2021/09/03 04:20:02;;;;;;;28.92;20.08;;;;;;;17.63;72.32;101336.34;5055804;28;20060;-60
2021/09/03 04:22:29;;;;;;;25.45;20.25;;;;;;;17.46;71.98;101331.78;5037659;28;20060;-61
2021/09/03 04:24:57;;;;;;;27.40;19.48;;;;;;;17.38;72.18;101329.84;5055918;28;20045;-62
2021/09/03 04:27:24;;;;;;;27.17;20.08;;;;;;;17.17;72.89;101331.09;5055876;28;20072;-60
2021/09/03 04:29:51;;;;;;;29.33;20.48;;;;;;;17.06;73.16;101330.69;5055816;28;20044;-61
2021/09/03 04:32:19;;;;;;;24.70;18.13;;;;;;;16.78;74.79;101329.63;5054688;28;20052;-60
2021/09/03 04:34:46;;;;;;;27.52;20.63;;;;;;;16.45;75.77;101337.88;5054315;28;20404;-62
2021/09/03 04:37:13;;;;;;;29.52;19.60;;;;;;;16.85;75.01;101333.50;5055739;28;20041;-63
2021/09/03 04:39:41;;;;;;;29.75;20.08;;;;;;;16.92;74.39;101330.16;5037658;28;20061;-63
2021/09/03 04:42:08;;;;;;;31.40;20.02;;;;;;;16.83;74.89;101335.81;5055060;28;20041;-63
2021/09/03 04:44:35;;;;;;;28.70;19.98;;;;;;;16.50;75.84;101340.50;5055685;28;20041;-61
2021/09/03 04:47:03;;;;;;;28.90;20.23;;;;;;;16.71;75.47;101346.88;5055848;28;20504;-62
2021/09/03 04:49:30;;;;;;;31.77;20.75;;;;;;;16.78;75.28;101338.81;5055195;28;20503;-64
2021/09/03 04:51:57;;;;;;;31.17;20.10;;;;;;;17.10;74.00;101339.19;5055074;28;20049;-62
2021/09/03 04:54:25;;;;;;;29.27;20.23;;;;;;;17.17;73.31;101328.31;5055344;28;20658;-62
2021/09/03 04:56:52;;;;;;;27.58;20.13;;;;;;;16.79;74.03;101331.25;5055197;28;20052;-63
2021/09/03 04:59:19;;;;;;;31.00;20.67;;;;;;;16.35;76.40;101332.69;5053944;28;20041;-63
2021/09/03 05:01:46;;;;;;;31.40;20.85;;;;;;;16.27;76.85;101324.41;5054877;28;20052;-61
2021/09/03 05:04:14;;;;;;;27.77;19.70;;;;;;;16.41;76.97;101322.19;5055045;28;20544;-62
2021/09/03 05:06:41;;;;;;;30.38;20.55;;;;;;;16.59;75.78;101320.97;5055541;28;20049;-61
2021/09/03 05:09:09;;;;;;;27.73;20.25;;;;;;;16.52;76.14;101312.34;5055511;28;20527;-61
2021/09/03 05:11:36;;;;;;;34.45;20.88;;;;;;;16.47;75.38;101326.44;5054542;28;20052;-62
2021/09/03 05:14:03;;;;;;;30.55;21.15;;;;;;;16.38;76.96;101326.47;5038673;28;20049;-63
2021/09/03 05:16:30;;;;;;;30.98;20.35;;;;;;;16.85;75.05;101322.38;5035164;28;20049;-60
2021/09/03 05:18:58;;;;;;;30.13;19.63;;;;;;;16.83;74.15;101323.88;5033513;28;20058;-62
2021/09/03 05:21:25;;;;;;;28.30;19.75;;;;;;;17.25;73.46;101321.81;5033479;28;20050;-60
2021/09/03 05:23:52;;;;;;;25.20;19.15;;;;;;;17.40;72.39;101327.56;5035074;28;20058;-60
2021/09/03 05:26:19;;;;;;;31.55;20.00;;;;;;;17.51;71.19;101328.78;5034528;28;20595;-60
2021/09/03 05:28:46;;;;;;;31.45;19.33;;;;;;;17.57;70.91;101327.38;5034660;28;20053;-61
2021/09/03 05:31:14;;;;;;;29.85;21.30;;;;;;;16.92;72.70;101327.38;5034699;28;20076;-62
2021/09/03 05:33:41;;;;;;;29.48;20.88;;;;;;;16.94;73.46;101333.44;5034727;28;20056;-60
2021/09/03 05:36:08;;;;;;;29.40;21.40;;;;;;;17.07;73.25;101340.66;5033219;28;20509;-60
2021/09/03 05:38:36;;;;;;;26.92;20.20;;;;;;;17.10;73.18;101334.44;5034417;28;20389;-60
2021/09/03 05:41:03;;;;;;;29.92;21.17;;;;;;;17.08;72.94;101339.53;5034204;28;20049;-60
2021/09/03 05:43:30;;;;;;;29.02;20.92;;;;;;;17.17;73.11;101331.91;5029781;28;20489;-62
2021/09/03 05:45:58;;;;;;;28.92;20.15;;;;;;;17.42;71.81;101328.03;5020676;28;20058;-61
2021/09/03 05:48:25;;;;;;;32.60;21.80;;;;;;;16.97;72.25;101331.91;5014628;28;20537;-60
2021/09/03 05:50:52;;;;;;;30.15;20.83;;;;;;;16.97;74.15;101340.25;5031576;28;20053;-61
2021/09/03 05:53:20;;;;;;;26.50;20.50;;;;;;;17.35;72.66;101341.69;5033857;28;20057;-60
2021/09/03 05:55:47;;;;;;;31.85;20.95;;;;;;;17.32;71.86;101345.19;5033802;28;20377;-60
2021/09/03 05:58:14;;;;;;;31.58;21.60;;;;;;;16.95;72.94;101342.56;5034395;28;20056;-62
2021/09/03 06:00:45;;;;;;;30.23;21.20;;;;;;;16.63;74.59;101346.94;5025126;28;20046;-62
2021/09/03 06:03:13;;;;;;;32.25;21.35;;;;;;;16.88;73.96;101340.34;5012836;28;20069;-63
2021/09/03 06:05:40;;;;;;;32.70;22.30;;;;;;;17.05;72.77;101347.75;5014299;28;20316;-64
2021/09/03 06:08:07;;;;;;;37.63;22.52;;;;;;;16.76;73.49;101352.25;5016834;28;20509;-62
2021/09/03 06:10:35;;;;;;;28.25;20.42;;;;;;;16.86;73.66;101351.00;5031008;28;20041;-63
2021/09/03 06:13:02;;;;;;;34.75;23.75;;;;;;;16.90;73.99;101343.59;5032108;28;20050;-63
2021/09/03 06:15:29;;;;;;;45.85;21.33;;;;;;;17.14;73.33;101345.69;5015005;28;20473;-61
2021/09/03 06:17:57;;;;;;;35.72;21.45;;;;;;;17.22;72.59;101339.22;5014565;28;20054;-62
2021/09/03 06:20:24;;;;;;;29.83;22.02;;;;;;;16.97;73.06;101343.88;5020833;28;20046;-62
2021/09/03 06:22:52;;;;;;;33.72;23.40;;;;;;;16.75;73.85;101349.81;5017640;28;20414;-62
2021/09/03 06:25:19;;;;;;;39.28;22.42;;;;;;;16.61;74.98;101347.28;5016763;28;20068;-63
2021/09/03 06:27:46;;;;;;;30.23;22.02;;;;;;;16.75;74.10;101344.25;5029846;28;20581;-62
2021/09/03 06:30:15;;;;;;;27.05;20.70;;;;;;;17.21;72.94;101343.97;5016710;28;20669;-62
2021/09/03 06:32:43;;;;;;;33.08;21.33;;;;;;;17.42;71.24;101333.59;5021457;28;20056;-63
2021/09/03 06:35:10;;;;;;;28.95;20.48;;;;;;;17.44;70.66;101328.50;5032445;28;20065;-62
2021/09/03 06:37:37;;;;;;;31.20;21.67;;;;;;;17.23;71.82;101327.75;5022577;28;20045;-62
2021/09/03 06:40:05;;;;;;;33.75;22.38;;;;;;;16.88;73.19;101332.00;5032360;28;20057;-61
2021/09/03 06:42:33;;;;;;;35.45;21.52;;;;;;;17.17;72.39;101337.47;5022139;28;20042;-62
2021/09/03 06:45:01;;;;;;;29.27;20.65;;;;;;;17.49;71.14;101328.31;5027420;28;20053;-61
2021/09/03 06:47:29;;;;;;;37.05;20.00;;;;;;;17.70;70.09;101331.00;5025338;28;20045;-61
2021/09/03 06:49:57;;;;;;;33.40;19.85;;;;;;;17.89;69.50;101336.84;5020006;28;20409;-62
2021/09/03 06:52:33;;;;;;;31.58;20.88;;;;;;;17.28;70.53;101335.88;5015457;28;20049;-60
2021/09/03 06:55:03;;;;;;;37.60;20.58;;;;;;;17.63;70.89;101341.91;5024854;28;20484;-62
2021/09/03 06:57:31;;;;;;;34.97;20.15;;;;;;;17.69;69.54;101338.56;5024216;28;20053;-63
2021/09/03 06:59:58;;;;;;;37.45;22.92;;;;;;;17.66;69.57;101344.03;5025374;28;20054;-62
2021/09/03 07:02:25;;;;;;;34.63;22.58;;;;;;;17.69;69.25;101344.16;5013667;28;20046;-62
2021/09/03 07:04:53;;;;;;;31.08;21.80;;;;;;;17.48;69.77;101348.97;5028457;28;20085;-62
2021/09/03 07:07:20;;;;;;;32.55;21.00;;;;;;;17.78;69.31;101344.03;5031810;28;20041;-62
2021/09/03 07:09:53;;;;;;;28.95;20.90;;;;;;;17.61;69.32;101345.03;5033957;28;20049;-64
2021/09/03 07:12:21;;;;;;;33.28;20.73;;;;;;;17.86;68.69;101341.13;5022694;28;20050;-63
2021/09/03 07:14:49;;;;;;;27.90;19.42;;;;;;;17.95;68.25;101343.81;5037401;28;20054;-63
2021/09/03 07:17:17;;;;;;;30.40;19.95;;;;;;;18.04;68.16;101343.69;5018125;28;20046;-62
2021/09/03 07:19:44;;;;;;;32.25;19.98;;;;;;;17.86;67.96;101335.56;5021083;28;20045;-62
2021/09/03 07:22:11;;;;;;;28.80;19.25;;;;;;;18.06;67.63;101345.00;5032309;28;20054;-63
2021/09/03 07:24:39;;;;;;;32.60;20.08;;;;;;;17.82;67.44;101339.38;5036227;28;20061;-63
2021/09/03 07:27:06;;;;;;;25.48;18.85;;;;;;;17.67;69.41;101337.28;5018950;28;20049;-63
2021/09/03 07:29:36;;;;;;;27.55;19.05;;;;;;;17.81;69.13;101332.19;5017739;28;20062;-64
2021/09/03 07:32:04;;;;;;;24.85;18.58;;;;;;;17.87;68.82;101330.78;5034697;28;20049;-63
2021/09/03 07:34:31;;;;;;;29.35;19.45;;;;;;;18.09;67.96;101338.72;5036825;28;20539;-64
2021/09/03 07:36:59;;;;;;;30.42;18.95;;;;;;;18.32;66.99;101339.03;5004531;28;20064;-63
2021/09/03 07:39:28;;;;;;;27.02;19.98;;;;;;;18.32;66.45;101334.28;5018161;28;20042;-63
2021/09/03 07:41:55;;;;;;;29.90;20.23;;;;;;;18.37;66.25;101334.03;5016867;28;20053;-62
2021/09/03 07:44:23;;;;;;;31.15;18.42;;;;;;;18.58;66.48;101331.94;5018124;28;20049;-63
2021/09/03 07:46:50;;;;;;;27.55;19.35;;;;;;;18.58;65.62;101326.38;5033117;28;20064;-63
2021/09/03 07:49:18;;;;;;;32.45;19.92;;;;;;;18.20;67.17;101334.28;5035998;28;20050;-63
2021/09/03 07:51:45;;;;;;;39.00;21.73;;;;;;;17.94;67.05;101331.84;5028812;28;20057;-64
2021/09/03 07:54:14;;;;;;;29.10;19.70;;;;;;;18.32;67.07;101331.50;5019475;28;20081;-63
2021/09/03 07:56:41;;;;;;;36.05;21.25;;;;;;;18.50;65.98;101341.25;5035763;28;20288;-64
2021/09/03 07:59:09;;;;;;;32.67;19.60;;;;;;;18.70;65.47;101336.69;5051532;28;20064;-64
2021/09/03 08:01:36;;;;;;;38.28;20.25;;;;;;;18.81;64.95;101330.22;5036314;28;20065;-64
2021/09/03 08:04:04;;;;;;;28.77;19.92;;;;;;;18.45;65.56;101332.31;5028464;28;20069;-65
2021/09/03 08:06:31;;;;;;;35.33;20.25;;;;;;;18.15;66.48;101331.72;5015945;28;20042;-62
2021/09/03 08:09:01;;;;;;;29.50;19.27;;;;;;;18.42;66.22;101342.19;5020640;28;20052;-65
2021/09/03 08:11:28;;;;;;;30.33;20.40;;;;;;;18.45;66.52;101330.34;5026170;28;20053;-64
2021/09/03 08:13:55;;;;;;;40.00;20.50;;;;;;;18.59;65.51;101338.31;5045923;28;20048;-65
2021/09/03 08:16:22;;;;;;;31.42;18.90;;;;;;;19.02;64.74;101335.66;5041859;28;20053;-63
2021/09/03 08:18:50;;;;;;;33.20;19.33;;;;;;;19.11;63.92;101335.50;5031770;28;20049;-64
2021/09/03 08:21:17;;;;;;;28.02;18.48;;;;;;;19.20;63.04;101330.53;5035845;28;20418;-63
2021/09/03 08:23:44;;;;;;;28.98;19.00;;;;;;;19.20;63.59;101324.97;5033252;28;20400;-64
2021/09/03 08:26:11;;;;;;;35.50;20.45;;;;;;;19.26;62.84;101332.75;5023603;28;20061;-65
2021/09/03 08:28:39;;;;;;;31.60;18.85;;;;;;;19.15;63.09;101334.41;5032244;28;20409;-65
2021/09/03 08:31:06;;;;;;;28.92;18.90;;;;;;;18.83;63.46;101327.91;5035726;28;20048;-64
2021/09/03 08:33:33;;;;;;;34.75;19.00;;;;;;;19.09;63.47;101331.06;5035745;28;20049;-64
2021/09/03 08:36:01;;;;;;;28.85;18.98;;;;;;;19.30;62.32;101336.47;5023400;28;20529;-63
2021/09/03 08:38:28;;;;;;;29.27;19.23;;;;;;;19.15;62.42;101326.03;5028063;28;20443;-63
2021/09/03 08:40:59;;;;;;;28.40;18.60;;;;;;;19.01;63.46;101322.84;5018059;28;20064;-64
2021/09/03 08:43:27;;;;;;;27.25;19.42;;;;;;;19.23;63.16;101319.47;5033593;28;20045;-64
2021/09/03 08:45:54;;;;;;;27.60;17.58;;;;;;;19.10;62.94;101315.13;5020928;28;20053;-64
2021/09/03 08:48:24;;;;;;;35.33;19.42;;;;;;;19.02;63.45;101324.47;5033467;28;20065;-63
2021/09/03 08:50:54;;;;;;;34.13;19.42;;;;;;;19.17;62.78;101325.69;5026690;28;20050;-65
2021/09/03 08:53:23;;;;;;;27.92;17.05;;;;;;;19.42;62.13;101307.66;5022771;28;20046;-64
2021/09/03 08:55:52;;;;;;;32.10;17.83;;;;;;;19.51;61.20;101317.47;5030582;28;20052;-65
2021/09/03 08:58:20;;;;;;;23.77;15.20;;;;;;;19.62;61.62;101310.19;5025905;28;20054;-64
2021/09/03 09:01:07;;;;;;;25.33;15.98;;;;;;;19.38;61.70;101307.56;5044485;28;20530;-63
2021/09/03 09:03:40;;;;;;;29.20;17.33;;;;;;;19.18;62.26;101314.16;5025827;28;20069;-62
2021/09/03 09:06:09;;;;;;;21.85;15.48;;;;;;;19.37;62.50;101311.50;5019975;28;20053;-63
2021/09/03 09:08:38;;;;;;;29.52;15.82;;;;;;;19.45;62.30;101307.75;5015243;28;20065;-63
2021/09/03 09:11:13;;;;;;;20.63;15.00;;;;;;;19.66;61.38;101299.13;5015292;28;20053;-64
2021/09/03 09:13:43;;;;;;;29.40;15.68;;;;;;;19.86;60.79;101307.22;5038981;28;20072;-63
2021/09/03 09:16:11;;;;;;;24.13;14.80;;;;;;;19.95;60.18;101305.06;5035550;28;20057;-63
2021/09/03 09:18:47;;;;;;;33.20;14.05;;;;;;;20.12;59.45;101301.88;5014729;28;20652;-64
2021/09/03 09:21:26;;;;;;;25.73;14.00;;;;;;;20.42;58.59;101301.38;5016176;28;20050;-63
2021/09/03 09:24:02;;;;;;;26.42;14.45;;;;;;;20.29;58.96;101302.69;5031186;28;20054;-64
2021/09/03 09:26:46;;;;;;;28.50;14.15;;;;;;;20.35;58.99;101302.03;5025766;28;20053;-63
2021/09/03 09:29:31;;;;;;;22.48;12.40;;;;;;;20.56;58.02;101294.13;5027988;28;20053;-63
2021/09/03 09:32:07;;;;;;;23.90;12.40;;;;;;;20.40;57.58;101296.16;5025856;28;20061;-62
2021/09/03 09:34:39;;;;;;;18.92;12.02;;;;;;;20.33;57.93;101298.78;5018058;28;20065;-63
2021/09/03 09:37:12;;;;;;;18.17;12.35;;;;;;;20.48;57.63;101295.16;5013605;28;20050;-62
2021/09/03 09:39:56;;;;;;;21.17;13.10;;;;;;;20.55;57.50;101288.88;5013520;28;20049;-62
2021/09/03 09:42:32;;;;;;;23.92;12.23;;;;;;;20.67;57.03;101292.38;5029062;28;20508;-63
2021/09/03 09:45:08;;;;;;;18.70;12.27;;;;;;;20.88;56.46;101301.22;5034622;28;20045;-63
2021/09/03 09:47:37;;;;;;;17.27;11.23;;;;;;;21.12;55.63;101289.72;5033269;28;20069;-63
2021/09/03 09:50:27;;;;;;;19.80;11.10;;;;;;;21.06;55.60;101282.78;5030915;28;20057;-63
2021/09/03 09:53:10;;;;;;;25.42;12.93;;;;;;;20.92;55.73;101287.28;5033964;28;20045;-63
2021/09/03 09:55:38;;;;;;;24.38;12.18;;;;;;;21.01;55.72;101287.88;5033831;28;20057;-61
2021/09/03 09:58:06;;;;;;;20.63;11.40;;;;;;;21.21;55.33;101283.88;5021593;28;20045;-61
2021/09/03 10:00:35;;;;;;;18.40;11.45;;;;;;;21.03;55.08;101268.72;5031413;28;20041;-61
2021/09/03 10:03:04;;;;;;;;;;;;;;;21.09;54.91;101270.03;5034399;28;20086;-62
2021/09/03 10:05:32;;;;;;;17.40;11.18;;;;;;;21.35;54.55;101266.53;5034051;28;19921;-62
2021/09/03 10:07:59;;;;;;;24.90;12.23;;;;;;;21.48;53.71;101263.16;5032672;28;20057;-61
2021/09/03 10:10:26;;;;;;;17.73;10.20;;;;;;;21.40;54.69;101255.81;5015522;28;20053;-61
2021/09/03 10:12:54;;;;;;;20.38;11.07;;;;;;;21.36;54.38;101259.75;5038112;28;20045;-60
2021/09/03 10:15:22;;;;;;;19.13;10.75;;;;;;;21.30;54.43;101264.84;5029783;28;20064;-61
2021/09/03 10:17:50;;;;;;;18.13;10.85;;;;;;;21.39;54.21;101259.00;5024405;28;20046;-61
2021/09/03 10:20:17;;;;;;;16.92;9.88;;;;;;;21.46;54.16;101250.72;5013911;28;20061;-61
2021/09/03 10:22:46;;;;;;;17.42;10.07;;;;;;;21.55;53.99;101251.28;5022822;28;20057;-61
2021/09/03 10:25:14;;;;;;;15.35;9.30;;;;;;;21.61;53.75;101255.38;5024746;28;20060;-61
2021/09/03 10:28:05;;;;;;;20.20;10.00;;;;;;;21.73;53.58;101256.00;5019423;28;20058;-60
2021/09/03 10:30:33;;;;;;;16.55;9.43;;;;;;;21.69;53.50;101254.31;5017798;28;20053;-60
2021/09/03 10:33:13;;;;;;;15.18;8.95;;;;;;;21.82;52.94;101250.16;5028215;28;20072;-61
2021/09/03 10:35:40;;;;;;;17.77;8.93;;;;;;;22.01;52.74;101255.66;5015707;28;20068;-61
2021/09/03 10:38:30;;;;;;;17.67;9.10;;;;;;;22.27;52.09;101247.22;4996734;28;20053;-61
2021/09/03 10:40:59;;;;;;;16.77;9.05;;;;;;;22.17;51.87;101251.50;5023402;28;20053;-62
2021/09/03 10:43:39;;;;;;;17.55;9.20;;;;;;;22.26;51.58;101252.03;5018735;28;20056;-60
2021/09/03 10:46:08;;;;;;;19.60;9.17;;;;;;;22.21;52.03;101243.94;5031990;28;20050;-61
2021/09/03 10:48:35;;;;;;;14.52;8.77;;;;;;;22.46;51.43;101244.28;5048121;28;20057;-61
2021/09/03 10:51:04;;;;;;;15.63;8.25;;;;;;;22.15;51.61;101242.66;5049125;28;20048;-62
2021/09/03 10:53:37;;;;;;;15.18;8.25;;;;;;;22.29;51.60;101245.69;5045948;28;20500;-61
2021/09/03 10:56:17;;;;;;;13.10;8.63;;;;;;;22.39;51.63;101235.75;5031891;28;20060;-62
2021/09/03 10:58:56;;;;;;;13.38;8.50;;;;;;;22.43;51.25;101233.00;5025068;28;20096;-61
2021/09/03 11:01:27;;;;;;;14.18;8.55;;;;;;;22.59;51.00;101233.66;5016338;28;20481;-60
2021/09/03 11:03:56;;;;;;;19.52;8.57;;;;;;;22.87;50.33;101236.81;5033070;28;20578;-61
2021/09/03 11:06:23;;;;;;;16.13;8.70;;;;;;;22.75;50.25;101234.25;5020624;28;20058;-60
2021/09/03 11:09:14;;;;;;;15.07;8.38;;;;;;;22.58;50.81;101230.03;5013561;28;20041;-61
2021/09/03 11:11:43;;;;;;;11.15;7.93;;;;;;;22.75;50.52;101229.44;5011934;28;20057;-60
2021/09/03 11:14:13;;;;;;;13.80;8.55;;;;;;;23.02;50.17;101228.16;5042389;28;20069;-60
2021/09/03 11:16:43;;;;;;;13.63;8.05;;;;;;;23.19;49.81;101204.22;5021086;28;20056;-61